sensor_id;sensor_type;location;lat;lon;timestamp;P1;durP1;ratioP1;P2;durP2;ratioP2
10442;SDS011;5269;51.146;16.986;2022-07-06T00:02:20;11.15;;;10.32;;
10442;SDS011;5269;51.146;16.986;2022-07-06T00:04:47;10.85;;;9.85;;
10442;SDS011;5269;51.146;16.986;2022-07-06T00:07:15;10.70;;;9.20;;
10442;SDS011;5269;51.146;16.986;2022-07-06T00:09:42;12.63;;;10.45;;
10442;SDS011;5269;51.146;16.986;2022-07-06T00:12:09;12.15;;;11.10;;
10442;SDS011;5269;51.146;16.986;2022-07-06T00:14:36;12.48;;;10.98;;
10442;SDS011;5269;51.146;16.986;2022-07-06T00:17:03;11.55;;;10.45;;
10442;SDS011;5269;51.146;16.986;2022-07-06T00:19:30;11.20;;;10.10;;
10442;SDS011;5269;51.146;16.986;2022-07-06T00:21:57;13.98;;;10.15;;
10442;SDS011;5269;51.146;16.986;2022-07-06T00:24:25;11.82;;;10.75;;
10442;SDS011;5269;51.146;16.986;2022-07-06T00:26:52;12.23;;;11.02;;
10442;SDS011;5269;51.146;16.986;2022-07-06T00:29:19;11.32;;;10.43;;
10442;SDS011;5269;51.146;16.986;2022-07-06T00:31:46;12.20;;;10.90;;
10442;SDS011;5269;51.146;16.986;2022-07-06T00:34:15;12.40;;;11.20;;
10442;SDS011;5269;51.146;16.986;2022-07-06T00:36:42;12.60;;;11.15;;
10442;SDS011;5269;51.146;16.986;2022-07-06T00:39:09;13.30;;;12.10;;
10442;SDS011;5269;51.146;16.986;2022-07-06T00:41:37;14.18;;;13.05;;
10442;SDS011;5269;51.146;16.986;2022-07-06T00:44:06;15.10;;;13.80;;
10442;SDS011;5269;51.146;16.986;2022-07-06T00:46:35;18.05;;;16.35;;
10442;SDS011;5269;51.146;16.986;2022-07-06T00:49:02;19.25;;;15.93;;
10442;SDS011;5269;51.146;16.986;2022-07-06T00:51:30;18.20;;;16.50;;
10442;SDS011;5269;51.146;16.986;2022-07-06T00:53:59;19.13;;;16.92;;
10442;SDS011;5269;51.146;16.986;2022-07-06T00:56:28;25.23;;;22.60;;
10442;SDS011;5269;51.146;16.986;2022-07-06T00:58:58;24.10;;;21.80;;
10442;SDS011;5269;51.146;16.986;2022-07-06T01:01:27;21.65;;;19.65;;
10442;SDS011;5269;51.146;16.986;2022-07-06T01:03:53;19.92;;;18.02;;
10442;SDS011;5269;51.146;16.986;2022-07-06T01:06:21;19.65;;;17.65;;
10442;SDS011;5269;51.146;16.986;2022-07-06T01:08:48;21.77;;;19.67;;
10442;SDS011;5269;51.146;16.986;2022-07-06T01:11:15;19.50;;;17.58;;
10442;SDS011;5269;51.146;16.986;2022-07-06T01:13:44;19.73;;;17.85;;
10442;SDS011;5269;51.146;16.986;2022-07-06T01:16:12;18.33;;;16.67;;
10442;SDS011;5269;51.146;16.986;2022-07-06T01:18:39;20.92;;;18.95;;
10442;SDS011;5269;51.146;16.986;2022-07-06T01:21:09;21.25;;;18.23;;
10442;SDS011;5269;51.146;16.986;2022-07-06T01:23:40;21.42;;;19.40;;
10442;SDS011;5269;51.146;16.986;2022-07-06T01:26:09;22.15;;;19.92;;
10442;SDS011;5269;51.146;16.986;2022-07-06T01:28:36;25.20;;;21.83;;
10442;SDS011;5269;51.146;16.986;2022-07-06T01:31:03;28.33;;;25.40;;
10442;SDS011;5269;51.146;16.986;2022-07-06T01:33:30;26.25;;;23.52;;
10442;SDS011;5269;51.146;16.986;2022-07-06T01:35:57;27.05;;;24.40;;
10442;SDS011;5269;51.146;16.986;2022-07-06T01:38:26;29.98;;;27.02;;
10442;SDS011;5269;51.146;16.986;2022-07-06T01:40:52;29.80;;;26.77;;
10442;SDS011;5269;51.146;16.986;2022-07-06T01:43:19;27.70;;;25.10;;
10442;SDS011;5269;51.146;16.986;2022-07-06T01:45:46;27.77;;;25.15;;
10442;SDS011;5269;51.146;16.986;2022-07-06T01:48:13;27.10;;;24.60;;
10442;SDS011;5269;51.146;16.986;2022-07-06T01:50:40;30.60;;;27.40;;
10442;SDS011;5269;51.146;16.986;2022-07-06T01:53:07;31.40;;;28.30;;
10442;SDS011;5269;51.146;16.986;2022-07-06T01:55:36;32.72;;;29.63;;
10442;SDS011;5269;51.146;16.986;2022-07-06T01:58:03;31.17;;;28.02;;
10442;SDS011;5269;51.146;16.986;2022-07-06T02:00:29;28.67;;;25.98;;
10442;SDS011;5269;51.146;16.986;2022-07-06T02:02:56;29.75;;;26.77;;
10442;SDS011;5269;51.146;16.986;2022-07-06T02:05:23;22.10;;;20.15;;
10442;SDS011;5269;51.146;16.986;2022-07-06T02:07:50;21.67;;;19.52;;
10442;SDS011;5269;51.146;16.986;2022-07-06T02:10:17;18.83;;;16.77;;
10442;SDS011;5269;51.146;16.986;2022-07-06T02:12:46;21.45;;;17.02;;
10442;SDS011;5269;51.146;16.986;2022-07-06T02:15:13;17.42;;;15.73;;
10442;SDS011;5269;51.146;16.986;2022-07-06T02:17:40;19.17;;;17.35;;
10442;SDS011;5269;51.146;16.986;2022-07-06T02:20:07;19.05;;;17.35;;
10442;SDS011;5269;51.146;16.986;2022-07-06T02:22:35;18.17;;;16.23;;
10442;SDS011;5269;51.146;16.986;2022-07-06T02:25:02;15.80;;;14.30;;
10442;SDS011;5269;51.146;16.986;2022-07-06T02:27:30;15.60;;;14.15;;
10442;SDS011;5269;51.146;16.986;2022-07-06T02:29:58;18.10;;;13.10;;
10442;SDS011;5269;51.146;16.986;2022-07-06T02:32:25;16.77;;;11.85;;
10442;SDS011;5269;51.146;16.986;2022-07-06T02:34:52;13.20;;;11.85;;
10442;SDS011;5269;51.146;16.986;2022-07-06T02:37:19;12.38;;;11.25;;
10442;SDS011;5269;51.146;16.986;2022-07-06T02:39:46;11.30;;;10.20;;
10442;SDS011;5269;51.146;16.986;2022-07-06T02:42:13;11.20;;;10.00;;
10442;SDS011;5269;51.146;16.986;2022-07-06T02:44:40;13.48;;;9.90;;
10442;SDS011;5269;51.146;16.986;2022-07-06T02:47:08;10.68;;;9.68;;
10442;SDS011;5269;51.146;16.986;2022-07-06T02:49:35;10.60;;;9.60;;
10442;SDS011;5269;51.146;16.986;2022-07-06T02:52:02;11.32;;;9.30;;
10442;SDS011;5269;51.146;16.986;2022-07-06T02:54:30;11.35;;;8.52;;
10442;SDS011;5269;51.146;16.986;2022-07-06T02:56:56;8.98;;;8.00;;
10442;SDS011;5269;51.146;16.986;2022-07-06T02:59:23;9.20;;;8.32;;
10442;SDS011;5269;51.146;16.986;2022-07-06T03:01:50;8.95;;;8.13;;
10442;SDS011;5269;51.146;16.986;2022-07-06T03:04:21;9.25;;;8.40;;
10442;SDS011;5269;51.146;16.986;2022-07-06T03:06:48;9.15;;;8.35;;
10442;SDS011;5269;51.146;16.986;2022-07-06T03:09:15;8.85;;;8.05;;
10442;SDS011;5269;51.146;16.986;2022-07-06T03:11:42;13.10;;;8.70;;
10442;SDS011;5269;51.146;16.986;2022-07-06T03:14:09;12.85;;;8.43;;
10442;SDS011;5269;51.146;16.986;2022-07-06T03:16:36;8.50;;;7.70;;
10442;SDS011;5269;51.146;16.986;2022-07-06T03:19:02;9.38;;;7.90;;
10442;SDS011;5269;51.146;16.986;2022-07-06T03:21:31;8.70;;;8.00;;
10442;SDS011;5269;51.146;16.986;2022-07-06T03:23:58;9.27;;;8.48;;
10442;SDS011;5269;51.146;16.986;2022-07-06T03:26:25;9.82;;;8.88;;
10442;SDS011;5269;51.146;16.986;2022-07-06T03:28:52;9.57;;;8.52;;
10442;SDS011;5269;51.146;16.986;2022-07-06T03:31:19;12.48;;;8.23;;
10442;SDS011;5269;51.146;16.986;2022-07-06T03:33:46;8.63;;;7.35;;
10442;SDS011;5269;51.146;16.986;2022-07-06T03:36:13;8.77;;;7.97;;
10442;SDS011;5269;51.146;16.986;2022-07-06T03:38:44;10.57;;;8.65;;
10442;SDS011;5269;51.146;16.986;2022-07-06T03:41:11;9.60;;;8.75;;
10442;SDS011;5269;51.146;16.986;2022-07-06T03:43:37;9.82;;;8.63;;
10442;SDS011;5269;51.146;16.986;2022-07-06T03:46:04;11.55;;;8.07;;
10442;SDS011;5269;51.146;16.986;2022-07-06T03:48:31;8.88;;;7.95;;
10442;SDS011;5269;51.146;16.986;2022-07-06T03:50:58;8.48;;;7.55;;
10442;SDS011;5269;51.146;16.986;2022-07-06T03:53:25;8.90;;;7.00;;
10442;SDS011;5269;51.146;16.986;2022-07-06T03:55:54;7.20;;;6.55;;
10442;SDS011;5269;51.146;16.986;2022-07-06T03:58:38;7.35;;;6.53;;
10442;SDS011;5269;51.146;16.986;2022-07-06T04:01:05;8.73;;;6.80;;
10442;SDS011;5269;51.146;16.986;2022-07-06T04:03:32;6.70;;;6.03;;
10442;SDS011;5269;51.146;16.986;2022-07-06T04:05:59;8.07;;;6.40;;
10442;SDS011;5269;51.146;16.986;2022-07-06T04:08:26;6.85;;;5.82;;
10442;SDS011;5269;51.146;16.986;2022-07-06T04:10:55;7.50;;;5.60;;
10442;SDS011;5269;51.146;16.986;2022-07-06T04:13:22;6.05;;;5.30;;
10442;SDS011;5269;51.146;16.986;2022-07-06T04:15:50;10.23;;;5.55;;
10442;SDS011;5269;51.146;16.986;2022-07-06T04:18:17;7.18;;;5.88;;
10442;SDS011;5269;51.146;16.986;2022-07-06T04:20:44;7.68;;;5.70;;
10442;SDS011;5269;51.146;16.986;2022-07-06T04:23:11;10.02;;;6.40;;
10442;SDS011;5269;51.146;16.986;2022-07-06T04:25:38;10.65;;;5.93;;
10442;SDS011;5269;51.146;16.986;2022-07-06T04:28:06;10.00;;;5.90;;
10442;SDS011;5269;51.146;16.986;2022-07-06T04:30:33;9.75;;;6.30;;
10442;SDS011;5269;51.146;16.986;2022-07-06T04:33:00;8.00;;;7.20;;
10442;SDS011;5269;51.146;16.986;2022-07-06T04:35:27;7.43;;;6.25;;
10442;SDS011;5269;51.146;16.986;2022-07-06T04:37:54;7.35;;;6.30;;
10442;SDS011;5269;51.146;16.986;2022-07-06T04:40:21;8.85;;;6.13;;
10442;SDS011;5269;51.146;16.986;2022-07-06T04:42:48;7.80;;;5.85;;
10442;SDS011;5269;51.146;16.986;2022-07-06T04:45:18;5.43;;;4.95;;
10442;SDS011;5269;51.146;16.986;2022-07-06T04:47:45;6.30;;;5.60;;
10442;SDS011;5269;51.146;16.986;2022-07-06T04:50:12;6.97;;;5.90;;
10442;SDS011;5269;51.146;16.986;2022-07-06T04:52:39;6.03;;;5.03;;
10442;SDS011;5269;51.146;16.986;2022-07-06T04:55:06;6.28;;;5.78;;
10442;SDS011;5269;51.146;16.986;2022-07-06T04:57:33;5.90;;;5.30;;
10442;SDS011;5269;51.146;16.986;2022-07-06T05:00:01;6.15;;;5.60;;
10442;SDS011;5269;51.146;16.986;2022-07-06T05:02:30;5.78;;;5.38;;
10442;SDS011;5269;51.146;16.986;2022-07-06T05:04:57;5.65;;;5.13;;
10442;SDS011;5269;51.146;16.986;2022-07-06T05:07:26;5.82;;;5.25;;
10442;SDS011;5269;51.146;16.986;2022-07-06T05:09:54;5.65;;;5.03;;
10442;SDS011;5269;51.146;16.986;2022-07-06T05:12:21;6.00;;;5.05;;
10442;SDS011;5269;51.146;16.986;2022-07-06T05:14:48;6.15;;;4.90;;
10442;SDS011;5269;51.146;16.986;2022-07-06T05:17:15;4.90;;;4.35;;
10442;SDS011;5269;51.146;16.986;2022-07-06T05:19:43;5.20;;;4.80;;
10442;SDS011;5269;51.146;16.986;2022-07-06T05:22:10;5.43;;;4.93;;
10442;SDS011;5269;51.146;16.986;2022-07-06T05:24:37;4.93;;;4.60;;
10442;SDS011;5269;51.146;16.986;2022-07-06T05:27:05;5.90;;;4.82;;
10442;SDS011;5269;51.146;16.986;2022-07-06T05:29:32;5.00;;;4.53;;
10442;SDS011;5269;51.146;16.986;2022-07-06T05:31:59;5.25;;;4.75;;
10442;SDS011;5269;51.146;16.986;2022-07-06T05:34:26;5.72;;;5.18;;
10442;SDS011;5269;51.146;16.986;2022-07-06T05:36:54;6.13;;;5.20;;
10442;SDS011;5269;51.146;16.986;2022-07-06T05:39:21;5.70;;;5.07;;
10442;SDS011;5269;51.146;16.986;2022-07-06T05:41:48;5.60;;;5.03;;
10442;SDS011;5269;51.146;16.986;2022-07-06T05:44:15;7.18;;;5.53;;
10442;SDS011;5269;51.146;16.986;2022-07-06T05:46:42;9.13;;;8.18;;
10442;SDS011;5269;51.146;16.986;2022-07-06T05:49:09;22.08;;;19.98;;
10442;SDS011;5269;51.146;16.986;2022-07-06T05:51:55;12.52;;;11.40;;
10442;SDS011;5269;51.146;16.986;2022-07-06T05:54:22;13.50;;;12.20;;
10442;SDS011;5269;51.146;16.986;2022-07-06T05:56:49;14.32;;;12.88;;
10442;SDS011;5269;51.146;16.986;2022-07-06T05:59:16;13.10;;;12.00;;
10442;SDS011;5269;51.146;16.986;2022-07-06T06:01:42;13.55;;;12.25;;
10442;SDS011;5269;51.146;16.986;2022-07-06T06:04:09;12.77;;;11.45;;
10442;SDS011;5269;51.146;16.986;2022-07-06T06:06:36;11.95;;;10.95;;
10442;SDS011;5269;51.146;16.986;2022-07-06T06:09:04;12.30;;;11.10;;
10442;SDS011;5269;51.146;16.986;2022-07-06T06:11:31;11.00;;;10.00;;
10442;SDS011;5269;51.146;16.986;2022-07-06T06:13:58;12.25;;;11.13;;
10442;SDS011;5269;51.146;16.986;2022-07-06T06:16:25;11.95;;;10.13;;
10442;SDS011;5269;51.146;16.986;2022-07-06T06:29:16;13.43;;;12.27;;
10442;SDS011;5269;51.146;16.986;2022-07-06T06:31:47;10.10;;;9.13;;
10442;SDS011;5269;51.146;16.986;2022-07-06T06:34:14;8.40;;;7.70;;
10442;SDS011;5269;51.146;16.986;2022-07-06T06:36:41;7.50;;;5.60;;
10442;SDS011;5269;51.146;16.986;2022-07-06T06:39:09;6.85;;;5.25;;
10442;SDS011;5269;51.146;16.986;2022-07-06T06:41:37;7.63;;;4.55;;
10442;SDS011;5269;51.146;16.986;2022-07-06T06:44:04;6.35;;;4.63;;
10442;SDS011;5269;51.146;16.986;2022-07-06T06:46:33;4.75;;;4.40;;
10442;SDS011;5269;51.146;16.986;2022-07-06T06:49:00;5.30;;;4.72;;
10442;SDS011;5269;51.146;16.986;2022-07-06T06:51:27;5.47;;;4.50;;
10442;SDS011;5269;51.146;16.986;2022-07-06T06:54:11;4.72;;;4.22;;
10442;SDS011;5269;51.146;16.986;2022-07-06T07:19:47;4.35;;;3.97;;
10442;SDS011;5269;51.146;16.986;2022-07-06T07:22:17;4.25;;;3.78;;
10442;SDS011;5269;51.146;16.986;2022-07-06T07:25:00;4.25;;;3.95;;
10442;SDS011;5269;51.146;16.986;2022-07-06T07:27:37;3.80;;;3.42;;
10442;SDS011;5269;51.146;16.986;2022-07-06T07:33:17;4.50;;;3.70;;
10442;SDS011;5269;51.146;16.986;2022-07-06T07:35:46;3.75;;;3.45;;
10442;SDS011;5269;51.146;16.986;2022-07-06T07:53:39;5.47;;;2.88;;
10442;SDS011;5269;51.146;16.986;2022-07-06T08:02:22;3.63;;;3.25;;
10442;SDS011;5269;51.146;16.986;2022-07-06T08:10:58;3.22;;;2.65;;
10442;SDS011;5269;51.146;16.986;2022-07-06T08:13:27;4.32;;;2.80;;
10442;SDS011;5269;51.146;16.986;2022-07-06T08:16:22;5.90;;;2.50;;
10442;SDS011;5269;51.146;16.986;2022-07-06T08:18:52;6.25;;;2.50;;
10442;SDS011;5269;51.146;16.986;2022-07-06T08:26:37;3.58;;;2.70;;
10442;SDS011;5269;51.146;16.986;2022-07-06T08:32:15;3.97;;;2.80;;
10442;SDS011;5269;51.146;16.986;2022-07-06T08:34:42;3.55;;;2.65;;
10442;SDS011;5269;51.146;16.986;2022-07-06T08:37:12;6.95;;;2.65;;
10442;SDS011;5269;51.146;16.986;2022-07-06T08:39:39;3.05;;;2.45;;
10442;SDS011;5269;51.146;16.986;2022-07-06T08:47:18;4.78;;;2.60;;
10442;SDS011;5269;51.146;16.986;2022-07-06T08:49:48;3.08;;;2.38;;
10442;SDS011;5269;51.146;16.986;2022-07-06T08:52:15;2.90;;;2.60;;
10442;SDS011;5269;51.146;16.986;2022-07-06T08:54:42;3.53;;;2.80;;
10442;SDS011;5269;51.146;16.986;2022-07-06T08:57:09;4.07;;;2.90;;
10442;SDS011;5269;51.146;16.986;2022-07-06T08:59:37;2.75;;;2.55;;
10442;SDS011;5269;51.146;16.986;2022-07-06T09:02:12;4.20;;;3.03;;
10442;SDS011;5269;51.146;16.986;2022-07-06T09:04:41;4.35;;;3.08;;
10442;SDS011;5269;51.146;16.986;2022-07-06T09:07:28;4.97;;;3.03;;
10442;SDS011;5269;51.146;16.986;2022-07-06T09:09:55;4.22;;;2.75;;
10442;SDS011;5269;51.146;16.986;2022-07-06T09:12:26;4.97;;;3.20;;
10442;SDS011;5269;51.146;16.986;2022-07-06T09:14:54;5.63;;;2.80;;
10442;SDS011;5269;51.146;16.986;2022-07-06T09:17:24;3.05;;;2.78;;
10442;SDS011;5269;51.146;16.986;2022-07-06T09:19:55;4.00;;;3.33;;
10442;SDS011;5269;51.146;16.986;2022-07-06T09:22:25;4.57;;;3.60;;
10442;SDS011;5269;51.146;16.986;2022-07-06T09:24:53;3.70;;;3.40;;
10442;SDS011;5269;51.146;16.986;2022-07-06T09:27:27;3.80;;;3.30;;
10442;SDS011;5269;51.146;16.986;2022-07-06T09:29:54;3.53;;;3.20;;
10442;SDS011;5269;51.146;16.986;2022-07-06T09:32:27;3.97;;;2.85;;
10442;SDS011;5269;51.146;16.986;2022-07-06T09:34:55;5.90;;;3.10;;
10442;SDS011;5269;51.146;16.986;2022-07-06T09:37:22;5.72;;;3.20;;
10442;SDS011;5269;51.146;16.986;2022-07-06T09:39:51;4.25;;;3.08;;
10442;SDS011;5269;51.146;16.986;2022-07-06T09:42:18;4.13;;;3.03;;
10442;SDS011;5269;51.146;16.986;2022-07-06T09:44:51;4.05;;;2.78;;
10442;SDS011;5269;51.146;16.986;2022-07-06T09:47:20;3.15;;;2.88;;
10442;SDS011;5269;51.146;16.986;2022-07-06T09:49:50;3.78;;;2.65;;
10442;SDS011;5269;51.146;16.986;2022-07-06T09:52:26;3.97;;;2.92;;
10442;SDS011;5269;51.146;16.986;2022-07-06T09:54:54;7.20;;;3.00;;
10442;SDS011;5269;51.146;16.986;2022-07-06T09:57:21;5.28;;;3.03;;
10442;SDS011;5269;51.146;16.986;2022-07-06T09:59:50;5.35;;;2.90;;
10442;SDS011;5269;51.146;16.986;2022-07-06T10:02:17;3.13;;;2.83;;
10442;SDS011;5269;51.146;16.986;2022-07-06T10:04:47;2.83;;;2.60;;
10442;SDS011;5269;51.146;16.986;2022-07-06T10:12:53;2.85;;;2.65;;
10442;SDS011;5269;51.146;16.986;2022-07-06T10:15:22;6.35;;;3.03;;
10442;SDS011;5269;51.146;16.986;2022-07-06T11:20:36;4.85;;;2.70;;
10442;SDS011;5269;51.146;16.986;2022-07-06T11:23:03;3.58;;;2.97;;
10442;SDS011;5269;51.146;16.986;2022-07-06T11:25:31;4.70;;;3.45;;
10442;SDS011;5269;51.146;16.986;2022-07-06T11:28:30;5.45;;;2.80;;
10442;SDS011;5269;51.146;16.986;2022-07-06T11:34:20;4.53;;;3.10;;
10442;SDS011;5269;51.146;16.986;2022-07-06T12:12:12;2.75;;;2.50;;
10442;SDS011;5269;51.146;16.986;2022-07-06T12:18:03;4.63;;;2.00;;
10442;SDS011;5269;51.146;16.986;2022-07-06T12:20:33;2.35;;;2.00;;
10442;SDS011;5269;51.146;16.986;2022-07-06T12:23:01;3.40;;;1.85;;
10442;SDS011;5269;51.146;16.986;2022-07-06T12:25:35;2.30;;;2.10;;
10442;SDS011;5269;51.146;16.986;2022-07-06T12:28:04;2.63;;;2.10;;
10442;SDS011;5269;51.146;16.986;2022-07-06T12:30:32;2.38;;;2.00;;
10442;SDS011;5269;51.146;16.986;2022-07-06T12:35:45;2.13;;;1.98;;
10442;SDS011;5269;51.146;16.986;2022-07-06T12:38:12;2.88;;;1.60;;
10442;SDS011;5269;51.146;16.986;2022-07-06T12:40:47;2.03;;;1.70;;
10442;SDS011;5269;51.146;16.986;2022-07-06T12:46:37;1.85;;;1.75;;
10442;SDS011;5269;51.146;16.986;2022-07-06T12:49:12;4.20;;;1.95;;
10442;SDS011;5269;51.146;16.986;2022-07-06T12:51:51;2.60;;;1.80;;
10442;SDS011;5269;51.146;16.986;2022-07-06T12:54:19;4.55;;;2.25;;
10442;SDS011;5269;51.146;16.986;2022-07-06T12:56:57;1.98;;;1.75;;
10442;SDS011;5269;51.146;16.986;2022-07-06T12:59:36;2.25;;;2.00;;
10442;SDS011;5269;51.146;16.986;2022-07-06T13:02:06;1.83;;;1.73;;
10442;SDS011;5269;51.146;16.986;2022-07-06T13:04:37;2.22;;;2.03;;
10442;SDS011;5269;51.146;16.986;2022-07-06T13:07:18;2.22;;;1.90;;
10442;SDS011;5269;51.146;16.986;2022-07-06T13:09:45;3.47;;;2.08;;
10442;SDS011;5269;51.146;16.986;2022-07-06T13:12:12;3.90;;;2.20;;
10442;SDS011;5269;51.146;16.986;2022-07-06T13:14:39;3.58;;;1.83;;
10442;SDS011;5269;51.146;16.986;2022-07-06T13:17:08;2.08;;;1.85;;
10442;SDS011;5269;51.146;16.986;2022-07-06T13:19:35;1.80;;;1.70;;
10442;SDS011;5269;51.146;16.986;2022-07-06T13:22:02;2.47;;;2.00;;
10442;SDS011;5269;51.146;16.986;2022-07-06T13:24:30;5.15;;;2.08;;
10442;SDS011;5269;51.146;16.986;2022-07-06T13:26:57;2.20;;;2.00;;
10442;SDS011;5269;51.146;16.986;2022-07-06T13:29:24;2.72;;;2.45;;
10442;SDS011;5269;51.146;16.986;2022-07-06T13:31:51;2.30;;;2.00;;
10442;SDS011;5269;51.146;16.986;2022-07-06T13:34:20;2.17;;;1.70;;
10442;SDS011;5269;51.146;16.986;2022-07-06T13:36:47;3.88;;;1.65;;
10442;SDS011;5269;51.146;16.986;2022-07-06T13:39:13;1.92;;;1.73;;
10442;SDS011;5269;51.146;16.986;2022-07-06T13:41:41;2.60;;;2.05;;
10442;SDS011;5269;51.146;16.986;2022-07-06T13:44:08;1.75;;;1.65;;
10442;SDS011;5269;51.146;16.986;2022-07-06T13:46:37;2.00;;;1.80;;
10442;SDS011;5269;51.146;16.986;2022-07-06T13:49:05;2.95;;;1.90;;
10442;SDS011;5269;51.146;16.986;2022-07-06T13:51:34;3.45;;;2.10;;
10442;SDS011;5269;51.146;16.986;2022-07-06T13:54:01;2.55;;;1.52;;
10442;SDS011;5269;51.146;16.986;2022-07-06T13:56:44;2.78;;;1.63;;
10442;SDS011;5269;51.146;16.986;2022-07-06T13:59:27;3.17;;;2.00;;
10442;SDS011;5269;51.146;16.986;2022-07-06T14:01:54;2.85;;;2.08;;
10442;SDS011;5269;51.146;16.986;2022-07-06T14:04:21;4.15;;;1.80;;
10442;SDS011;5269;51.146;16.986;2022-07-06T14:06:49;2.40;;;2.10;;
10442;SDS011;5269;51.146;16.986;2022-07-06T14:09:16;3.10;;;2.00;;
10442;SDS011;5269;51.146;16.986;2022-07-06T14:11:43;2.13;;;2.03;;
10442;SDS011;5269;51.146;16.986;2022-07-06T14:14:10;2.65;;;2.30;;
10442;SDS011;5269;51.146;16.986;2022-07-06T14:16:37;3.17;;;2.30;;
10442;SDS011;5269;51.146;16.986;2022-07-06T14:19:05;2.97;;;2.38;;
10442;SDS011;5269;51.146;16.986;2022-07-06T14:21:33;3.15;;;2.60;;
10442;SDS011;5269;51.146;16.986;2022-07-06T14:24:02;3.40;;;2.28;;
10442;SDS011;5269;51.146;16.986;2022-07-06T14:26:29;2.70;;;2.33;;
10442;SDS011;5269;51.146;16.986;2022-07-06T14:32:36;2.65;;;2.30;;
10442;SDS011;5269;51.146;16.986;2022-07-06T14:38:43;2.88;;;1.92;;
10442;SDS011;5269;51.146;16.986;2022-07-06T14:59:13;3.03;;;2.47;;
10442;SDS011;5269;51.146;16.986;2022-07-06T15:36:13;3.83;;;1.90;;
10442;SDS011;5269;51.146;16.986;2022-07-06T15:39:01;2.17;;;2.00;;
10442;SDS011;5269;51.146;16.986;2022-07-06T15:42:02;6.85;;;2.10;;
10442;SDS011;5269;51.146;16.986;2022-07-06T15:44:55;2.00;;;1.88;;
10442;SDS011;5269;51.146;16.986;2022-07-06T15:47:31;2.95;;;1.92;;
10442;SDS011;5269;51.146;16.986;2022-07-06T16:00:31;3.67;;;1.90;;
10442;SDS011;5269;51.146;16.986;2022-07-06T16:03:05;2.95;;;2.30;;
10442;SDS011;5269;51.146;16.986;2022-07-06T16:05:43;3.78;;;2.33;;
10442;SDS011;5269;51.146;16.986;2022-07-06T16:08:25;2.90;;;2.20;;
10442;SDS011;5269;51.146;16.986;2022-07-06T16:11:08;2.65;;;2.33;;
10442;SDS011;5269;51.146;16.986;2022-07-06T16:13:40;2.40;;;2.28;;
10442;SDS011;5269;51.146;16.986;2022-07-06T16:16:14;3.30;;;2.33;;
10442;SDS011;5269;51.146;16.986;2022-07-06T16:18:50;2.22;;;2.10;;
10442;SDS011;5269;51.146;16.986;2022-07-06T16:21:42;3.58;;;2.30;;
10442;SDS011;5269;51.146;16.986;2022-07-06T16:24:49;2.28;;;2.08;;
10442;SDS011;5269;51.146;16.986;2022-07-06T16:27:33;2.78;;;2.15;;
10442;SDS011;5269;51.146;16.986;2022-07-06T16:30:14;3.00;;;1.98;;
10442;SDS011;5269;51.146;16.986;2022-07-06T16:32:45;4.88;;;2.13;;
10442;SDS011;5269;51.146;16.986;2022-07-06T16:35:18;3.63;;;2.10;;
10442;SDS011;5269;51.146;16.986;2022-07-06T16:38:39;2.15;;;2.00;;
10442;SDS011;5269;51.146;16.986;2022-07-06T16:41:06;3.55;;;2.20;;
10442;SDS011;5269;51.146;16.986;2022-07-06T16:43:33;3.85;;;1.92;;
10442;SDS011;5269;51.146;16.986;2022-07-06T16:46:18;2.13;;;1.92;;
10442;SDS011;5269;51.146;16.986;2022-07-06T16:48:47;1.90;;;1.80;;
10442;SDS011;5269;51.146;16.986;2022-07-06T16:51:20;3.85;;;2.33;;
10442;SDS011;5269;51.146;16.986;2022-07-06T16:53:47;4.35;;;2.00;;
10442;SDS011;5269;51.146;16.986;2022-07-06T16:56:52;1.90;;;1.80;;
10442;SDS011;5269;51.146;16.986;2022-07-06T16:59:25;2.38;;;2.10;;
10442;SDS011;5269;51.146;16.986;2022-07-06T17:01:55;2.25;;;2.00;;
10442;SDS011;5269;51.146;16.986;2022-07-06T17:07:09;2.80;;;1.90;;
10442;SDS011;5269;51.146;16.986;2022-07-06T17:09:37;3.17;;;1.95;;
10442;SDS011;5269;51.146;16.986;2022-07-06T17:12:04;2.85;;;2.08;;
10442;SDS011;5269;51.146;16.986;2022-07-06T17:14:31;3.70;;;1.83;;
10442;SDS011;5269;51.146;16.986;2022-07-06T17:16:58;4.10;;;1.73;;
10442;SDS011;5269;51.146;16.986;2022-07-06T17:19:28;2.72;;;2.25;;
10442;SDS011;5269;51.146;16.986;2022-07-06T17:21:56;4.72;;;2.20;;
10442;SDS011;5269;51.146;16.986;2022-07-06T17:24:26;2.70;;;2.50;;
10442;SDS011;5269;51.146;16.986;2022-07-06T17:32:07;3.72;;;2.28;;
10442;SDS011;5269;51.146;16.986;2022-07-06T17:37:56;2.40;;;2.20;;
10442;SDS011;5269;51.146;16.986;2022-07-06T17:40:25;2.50;;;2.30;;
10442;SDS011;5269;51.146;16.986;2022-07-06T17:42:55;5.85;;;2.30;;
10442;SDS011;5269;51.146;16.986;2022-07-06T17:45:23;2.40;;;2.20;;
10442;SDS011;5269;51.146;16.986;2022-07-06T17:48:33;4.75;;;1.98;;
10442;SDS011;5269;51.146;16.986;2022-07-06T17:51:12;2.63;;;2.28;;
10442;SDS011;5269;51.146;16.986;2022-07-06T17:53:43;2.25;;;2.00;;
10442;SDS011;5269;51.146;16.986;2022-07-06T17:56:10;3.90;;;2.45;;
10442;SDS011;5269;51.146;16.986;2022-07-06T17:58:41;3.67;;;2.30;;
10442;SDS011;5269;51.146;16.986;2022-07-06T18:01:11;4.28;;;2.13;;
10442;SDS011;5269;51.146;16.986;2022-07-06T18:03:38;3.80;;;2.53;;
10442;SDS011;5269;51.146;16.986;2022-07-06T18:06:05;5.10;;;2.47;;
10442;SDS011;5269;51.146;16.986;2022-07-06T18:34:40;5.40;;;2.35;;
10442;SDS011;5269;51.146;16.986;2022-07-06T18:37:10;4.70;;;2.38;;
10442;SDS011;5269;51.146;16.986;2022-07-06T18:42:22;4.13;;;2.40;;
10442;SDS011;5269;51.146;16.986;2022-07-06T18:44:49;4.18;;;3.15;;
10442;SDS011;5269;51.146;16.986;2022-07-06T18:47:20;5.80;;;2.30;;
10442;SDS011;5269;51.146;16.986;2022-07-06T18:49:49;3.92;;;2.20;;
10442;SDS011;5269;51.146;16.986;2022-07-06T18:52:22;7.03;;;2.00;;
10442;SDS011;5269;51.146;16.986;2022-07-06T18:55:29;3.65;;;2.28;;
10442;SDS011;5269;51.146;16.986;2022-07-06T18:58:40;4.13;;;2.10;;
10442;SDS011;5269;51.146;16.986;2022-07-06T19:04:01;3.85;;;1.95;;
10442;SDS011;5269;51.146;16.986;2022-07-06T19:06:34;2.13;;;2.00;;
10442;SDS011;5269;51.146;16.986;2022-07-06T19:11:52;3.10;;;2.25;;
10442;SDS011;5269;51.146;16.986;2022-07-06T19:17:10;3.08;;;2.35;;
10442;SDS011;5269;51.146;16.986;2022-07-06T19:19:41;2.28;;;2.10;;
10442;SDS011;5269;51.146;16.986;2022-07-06T19:22:08;3.75;;;2.20;;
10442;SDS011;5269;51.146;16.986;2022-07-06T19:31:05;4.57;;;2.30;;
10442;SDS011;5269;51.146;16.986;2022-07-06T19:33:38;2.47;;;2.10;;
10442;SDS011;5269;51.146;16.986;2022-07-06T19:36:15;5.30;;;2.28;;
10442;SDS011;5269;51.146;16.986;2022-07-06T19:38:53;10.80;;;2.20;;
10442;SDS011;5269;51.146;16.986;2022-07-06T19:41:29;4.13;;;2.63;;
10442;SDS011;5269;51.146;16.986;2022-07-06T19:44:01;4.07;;;2.35;;
10442;SDS011;5269;51.146;16.986;2022-07-06T19:46:28;5.38;;;2.90;;
10442;SDS011;5269;51.146;16.986;2022-07-06T19:48:55;6.40;;;2.72;;
10442;SDS011;5269;51.146;16.986;2022-07-06T19:51:27;4.47;;;2.50;;
10442;SDS011;5269;51.146;16.986;2022-07-06T19:53:56;2.42;;;2.03;;
10442;SDS011;5269;51.146;16.986;2022-07-06T19:56:24;4.75;;;2.67;;
10442;SDS011;5269;51.146;16.986;2022-07-06T19:58:54;3.30;;;2.42;;
10442;SDS011;5269;51.146;16.986;2022-07-06T20:01:24;4.30;;;2.50;;
10442;SDS011;5269;51.146;16.986;2022-07-06T20:03:51;8.43;;;2.47;;
10442;SDS011;5269;51.146;16.986;2022-07-06T20:06:24;2.40;;;2.20;;
10442;SDS011;5269;51.146;16.986;2022-07-06T20:08:55;2.85;;;2.30;;
10442;SDS011;5269;51.146;16.986;2022-07-06T20:11:26;2.92;;;2.40;;
10442;SDS011;5269;51.146;16.986;2022-07-06T20:21:05;3.10;;;2.20;;
10442;SDS011;5269;51.146;16.986;2022-07-06T20:23:42;2.70;;;2.50;;
10442;SDS011;5269;51.146;16.986;2022-07-06T20:26:26;3.50;;;2.50;;